CJW7 weather

Cigar Lake Airport
Cigar Lake, Saskatchewan, Canada

Public forecast

Using degrees Celsius for public forecast. Weather courtesy of forecast.io.

METAR (pilot weather report)

Closest report is Key Lake Airport, 60.1 nm (111.4 km) SW. Retrieved 2019/05/20 02:00 UTC (3 minutes ago):

CYKJ 200200Z AUTO 15005KT 9SM CLR 17/M06 A3014 RMK SLP220 DENSITY ALT 2000FT

TAF (pilot weather forecast)

Forecast is more than 6 hours old.

Closest forecast is Key Lake Airport, 60.1 nm (111.4 km) SW. Retrieved 2019/05/19 19:00 UTC (7 hours ago):

TAF CYKJ 191838Z 1919/1924 16010KT P6SM SKC RMK FCST BASED ON AUTO OBS. NXT FCST WILL BE ISSUED AT 200945Z